• Join FlightAware (Why Join?)
  • Login
  • US Flag 
09:03PM EDT


 

Airport Tracker/Info


-or-


 

Live Flight TrackerFlight Track Log ✈ N682RW ✈ 19-Sep-2013 ✈ KBOS - KDTW

Flight Track Log - Related Links

Times and Time Zones

All times are in EDT time to prevent confusion due to time zone crossing. See the N682RW flight status page for this flight to view local times or setup timezone preferences in your user account.

Time Position Orientation Groundspeed Altitude Reporting Facility
EDT Latitude Longitude Course Direction KTS MPH feet Rate Location/Type
10:59PM 42.3500 -70.9833 114° Southeast 180 207 900  Level KA90
11:00PM 42.3167 -70.8833 114° Southeast 267 307 4,500 2,460 Climbing KA90
11:01PM 42.3406 -70.7914 71° East 293 337 7,000 2,520 Climbing Boston Center
11:02PM 42.4064 -70.7333 33° Northeast 275 316 10,000 2,580 Climbing Boston Center
11:03PM 42.5022 -70.7278 North 292 336 12,300 2,700 Climbing Boston Center
11:04PM 42.5725 -70.8444 309° West 286 329 15,500 2,700 Climbing Boston Center
11:05PM 42.6219 -70.9531 302° West 346 398 17,700 1,920 Climbing Boston Center
11:06PM 42.6656 -71.0961 293° West 379 436 19,400 1,980 Climbing Boston Center
11:07PM 42.6672 -71.2542 271° West 394 453 21,700 2,100 Climbing Boston Center
11:08PM 42.6750 -71.4150 274° West 416 479 23,600 1,860 Climbing Boston Center
11:09PM 42.6828 -71.5956 273° West 435 501 25,500 1,680 Climbing Boston Center
11:10PM 42.6944 -71.7678 275° West 451 519 27,000 1,380 Climbing Boston Center
11:11PM 42.7056 -71.9456 275° West 462 532 28,300 1,380 Climbing Boston Center
11:12PM 42.7167 -72.1264 275° West 474 545 29,900 1,620 Climbing Boston Center
11:13PM 42.7317 -72.2875 277° West 482 555 31,500 1,500 Climbing Boston Center
11:14PM 42.7422 -72.4628 275° West 482 555 32,900 1,140 Climbing Boston Center
11:15PM 42.7483 -72.6522 273° West 470 541 33,900 540 Climbing Boston Center
11:16PM 42.7581 -72.8303 274° West 468 539 34,000  Climbing Boston Center
11:17PM 42.7700 -73.0058 275° West 496 571 34,000  Level Boston Center
11:18PM 42.7794 -73.1897 274° West 501 577 34,000  Level Boston Center
11:19PM 42.7883 -73.3736 274° West 501 577 34,000  Level Boston Center
11:20PM 42.7956 -73.5181 274° West 495 570 34,000  Level Boston Center
11:21PM 42.8033 -73.7531 273° West 495 570 34,000  Level Boston Center
11:22PM 42.8117 -73.9372 274° West 490 564 34,000  Level Boston Center
11:23PM 42.8194 -74.1131 274° West 484 557 34,000  Level Boston Center
11:25PM 42.8286 -74.3314 273° West 479 551 34,000  Level Boston Center
11:26PM 42.8358 -74.5128 273° West 479 551 34,000  Level Boston Center
11:27PM 42.8428 -74.6942 273° West 479 551 34,000  Level Boston Center
11:28PM 42.8497 -74.8672 273° West 479 551 34,000 -60 Level Boston Center
11:29PM 42.8561 -75.0458 273° West 474 545 33,900  Descending Boston Center
11:30PM 42.8625 -75.2247 273° West 474 545 34,000  Climbing Boston Center
11:31PM 42.8697 -75.4319 273° West 474 545 34,000  Level Boston Center
11:32PM 42.8753 -75.6050 273° West 469 540 34,000  Level Boston Center
11:33PM 42.8806 -75.7839 272° West 469 540 34,000  Level Boston Center
11:35PM 42.8933 -76.2111 272° West 468 539 34,000  Level Cleveland Center
11:36PM 42.8978 -76.3875 272° West 466 536 34,000  Level Cleveland Center
11:37PM 42.9011 -76.5642 272° West 466 536 34,000  Level Cleveland Center
11:38PM 42.9044 -76.7272 272° West 466 536 34,000  Level Cleveland Center
11:39PM 42.9075 -76.9028 271° West 467 537 34,000  Level Cleveland Center
11:40PM 42.9111 -77.0769 272° West 464 534 34,000  Level Cleveland Center
11:41PM 42.9139 -77.2500 271° West 462 532 34,000  Level Cleveland Center
11:42PM 42.9086 -77.4247 268° West 465 535 34,000  Level Cleveland Center
11:43PM 42.8986 -77.6331 266° West 466 536 34,000  Level Cleveland Center
11:44PM 42.8911 -77.8061 267° West 466 536 34,000  Level Cleveland Center
11:45PM 42.8822 -77.9792 266° West 462 532 34,000  Level Cleveland Center
11:46PM 42.8744 -78.1500 267° West 455 524 34,000  Level Cleveland Center
11:47PM 42.8653 -78.3200 266° West 454 522 34,000  Level Cleveland Center
11:48PM 42.8567 -78.4919 266° West 456 525 34,000  Level Cleveland Center
11:49PM 42.8481 -78.6617 266° West 452 520 34,000  Level Cleveland Center
11:50PM 42.8386 -78.8317 266° West 452 520 34,000  Level Cleveland Center
11:51PM 42.8303 -79.0000 266° West 447 514 34,000  Level Cleveland Center
11:52PM 42.8203 -79.1681 265° West 446 513 34,000  Level Cleveland Center
11:53PM 42.8083 -79.3675 265° West 442 509 34,000  Level Cleveland Center
11:54PM 42.7978 -79.5344 265° West 443 510 34,000  Level Cleveland Center
11:55PM 42.7872 -79.7006 265° West 440 506 34,000  Level Cleveland Center
11:56PM 42.7761 -79.8664 265° West 442 509 34,000  Level Cleveland Center
11:57PM 42.7650 -80.0267 265° West 451 519 34,000  Level Cleveland Center
11:58PM 42.7542 -80.1964 265° West 447 514 34,000  Level Cleveland Center
11:59PM 42.7422 -80.3667 265° West 452 520 34,000  Level Cleveland Center
12:01AM 42.7314 -80.5364 265° West 448 516 34,000 -600 Level Cleveland Center
12:02AM 42.7183 -80.7008 264° West 438 504 32,800 -1,380 Descending Cleveland Center
12:03AM 42.7072 -80.8722 265° West 451 519 31,300 -1,740 Descending Cleveland Center
12:04AM 42.6881 -81.0433 261° West 455 524 29,400 -1,980 Descending Cleveland Center
12:05AM 42.6675 -81.2153 261° West 457 526 27,400 -1,860 Descending Cleveland Center
12:06AM 42.6472 -81.3878 261° West 460 529 25,700 -1,980 Descending Cleveland Center
12:07AM 42.6214 -81.5542 258° West 451 519 23,500 -2,040 Descending Cleveland Center
12:08AM 42.5914 -81.7142 256° West 438 504 21,600 -1,560 Descending Cleveland Center
12:09AM 42.5639 -81.8714 257° West 419 482 20,400 -1,440 Descending Cleveland Center
12:10AM 42.5372 -82.0203 256° West 410 472 18,700 -2,220 Descending Cleveland Center
12:11AM 42.5117 -82.1633 256° West 395 455 16,000 -2,580 Descending Cleveland Center
12:12AM 42.4861 -82.3006 256° West 383 441 13,500 -1,980 Descending Cleveland Center
12:13AM 42.4619 -82.4342 256° West 372 428 12,100 -1,440 Descending Cleveland Center
12:15AM 42.3510 -82.6905 253° West  Level FlightAware Approximate
12:22AM 42.2000 -83.3500 255° West  Level FlightAware Approximate
12:23AM 42.2124 -83.3534 255° West  Level Estimated
12:24AM 42.2124 -83.3534 255° West  Level Estimated
12:25AM 42.2124 -83.3534 255° West  Level Estimated
12:26AM 42.2124 -83.3534 255° West  Level Estimated
12:27AM 42.2124 -83.3534 255° West  Level Estimated
12:28AM 42.2124 -83.3534 255° West  Level Estimated
12:29AM 42.2124 -83.3534 255° West  Level Estimated
12:30AM 42.2124 -83.3534 255° West  Level Estimated
12:31AM 42.2124 -83.3534 255° West  Level Estimated